createdAt,value
2022-08-03T00:02:53.605Z,21.58
2022-08-03T00:06:04.857Z,27.98
2022-08-03T00:09:10.733Z,29.63
2022-08-03T00:12:16.042Z,26.95
2022-08-03T00:15:21.433Z,25.00
2022-08-03T00:18:26.715Z,21.52
2022-08-03T00:21:34.317Z,27.00
2022-08-03T00:24:39.434Z,23.67
2022-08-03T00:27:44.530Z,21.90
2022-08-03T00:30:49.682Z,24.05
2022-08-03T00:33:59.023Z,18.73
2022-08-03T00:37:07.900Z,21.63
2022-08-03T00:40:14.693Z,23.50
2022-08-03T00:43:19.978Z,20.50
2022-08-03T00:46:25.091Z,19.98
2022-08-03T00:49:31.074Z,18.65
2022-08-03T00:52:39.038Z,18.85
2022-08-03T00:55:44.769Z,20.00
2022-08-03T00:58:49.957Z,18.20
2022-08-03T01:01:56.386Z,20.83
2022-08-03T01:05:01.721Z,17.73
2022-08-03T01:08:16.614Z,16.90
2022-08-03T01:11:26.136Z,21.88
2022-08-03T01:14:35.681Z,17.80
2022-08-03T01:17:44.355Z,22.95
2022-08-03T01:20:54.874Z,26.25
2022-08-03T01:24:07.392Z,19.03
2022-08-03T01:27:13.894Z,21.15
2022-08-03T01:30:21.777Z,20.17
2022-08-03T01:33:28.477Z,18.83
2022-08-03T01:36:40.093Z,21.63
2022-08-03T01:39:46.242Z,24.30
2022-08-03T01:42:51.707Z,17.85
2022-08-03T01:45:59.778Z,20.38
2022-08-03T01:49:09.349Z,23.17
2022-08-03T01:52:15.234Z,21.25
2022-08-03T01:55:22.320Z,23.73
2022-08-03T01:58:27.855Z,20.73
2022-08-03T02:02:29.116Z,20.38
2022-08-03T02:05:03.946Z,20.20
2022-08-03T02:08:10.455Z,18.98
2022-08-03T02:11:15.728Z,24.13
2022-08-03T02:14:23.166Z,19.38
2022-08-03T02:17:38.650Z,25.80
2022-08-03T02:20:46.270Z,20.35
2022-08-03T02:23:51.342Z,19.40
2022-08-03T02:26:57.205Z,21.08
2022-08-03T02:30:05.908Z,17.25
2022-08-03T02:33:14.646Z,18.98
2022-08-03T02:36:20.120Z,22.23
2022-08-03T02:39:28.058Z,20.55
2022-08-03T02:42:33.988Z,18.75
2022-08-03T02:45:45.057Z,22.00
2022-08-03T02:48:55.273Z,23.60
2022-08-03T02:52:01.013Z,26.60
2022-08-03T02:55:06.494Z,19.60
2022-08-03T02:58:12.408Z,23.83
2022-08-03T03:01:17.955Z,25.98
2022-08-03T03:04:27.561Z,24.88
2022-08-03T03:07:51.667Z,23.95
2022-08-03T03:10:58.281Z,23.98
2022-08-03T03:14:04.158Z,26.27
2022-08-03T03:17:14.875Z,23.98
2022-08-03T03:20:29.068Z,23.83
2022-08-03T03:23:38.577Z,24.17
2022-08-03T03:26:44.414Z,22.92
2022-08-03T03:29:49.639Z,27.92
2022-08-03T03:32:54.667Z,30.75
2022-08-03T03:36:02.632Z,24.70
2022-08-03T03:39:15.983Z,21.83
2022-08-03T03:42:21.227Z,20.83
2022-08-03T03:45:26.692Z,20.95
2022-08-03T03:48:32.297Z,19.13
2022-08-03T03:51:40.349Z,19.80
2022-08-03T03:54:45.870Z,19.98
2022-08-03T03:57:51.019Z,18.35
2022-08-03T04:00:56.208Z,23.08
2022-08-03T04:04:21.925Z,20.65
2022-08-03T04:07:42.501Z,21.58
2022-08-03T04:11:03.176Z,20.95
2022-08-03T04:14:09.794Z,20.92
2022-08-03T04:17:16.286Z,16.73
2022-08-03T04:20:23.943Z,15.65
2022-08-03T04:23:33.325Z,18.10
2022-08-03T04:26:40.307Z,21.42
2022-08-03T04:29:48.934Z,19.65
2022-08-03T04:32:54.074Z,17.27
2022-08-03T04:36:03.385Z,15.98
2022-08-03T04:39:13.987Z,18.45
2022-08-03T04:42:20.923Z,16.52
2022-08-03T04:45:26.840Z,18.02
2022-08-03T04:48:32.357Z,18.00
2022-08-03T04:51:38.915Z,17.60
2022-08-03T04:54:50.562Z,15.57
2022-08-03T04:57:55.925Z,21.10
2022-08-03T05:01:01.090Z,19.63
2022-08-03T05:04:06.394Z,16.58
2022-08-03T05:07:11.643Z,21.98
2022-08-03T05:10:20.497Z,19.77
2022-08-03T05:13:25.634Z,20.10
2022-08-03T05:16:30.889Z,21.50
2022-08-03T05:19:36.287Z,26.17
2022-08-03T05:22:41.298Z,28.77
2022-08-03T05:25:50.010Z,26.65
2022-08-03T05:28:55.687Z,21.77
2022-08-03T05:32:07.789Z,24.85
2022-08-03T05:36:02.640Z,26.70
2022-08-03T05:38:38.298Z,18.90
2022-08-03T05:41:46.085Z,22.08
2022-08-03T05:44:51.478Z,20.42
2022-08-03T05:47:56.567Z,20.20
2022-08-03T05:51:01.818Z,22.02
2022-08-03T05:54:06.933Z,20.27
2022-08-03T05:57:15.573Z,19.65
2022-08-03T06:00:21.324Z,20.45
2022-08-03T06:03:27.107Z,23.23
2022-08-03T06:06:32.596Z,24.35
2022-08-03T06:10:36.858Z,24.58
2022-08-03T06:13:05.502Z,19.00
2022-08-03T06:16:10.778Z,23.55
2022-08-03T06:19:15.905Z,20.60
2022-08-03T06:22:20.910Z,17.95
2022-08-03T06:25:26.978Z,17.15
2022-08-03T06:28:51.879Z,18.83
2022-08-03T06:31:59.186Z,13.60
2022-08-03T06:35:04.292Z,15.77
2022-08-03T06:38:09.415Z,11.88
2022-08-03T06:41:14.399Z,14.20
2022-08-03T06:44:22.212Z,14.70
2022-08-03T06:47:27.200Z,17.83
2022-08-03T06:50:32.473Z,17.17
2022-08-03T06:53:37.728Z,12.07
2022-08-03T06:56:42.889Z,8.95
2022-08-03T07:00:08.544Z,14.68
2022-08-03T07:03:15.796Z,14.40
2022-08-03T07:06:20.888Z,12.90
2022-08-03T07:09:27.089Z,17.77
2022-08-03T07:12:32.876Z,14.15
2022-08-03T07:15:55.249Z,9.23
2022-08-03T07:19:01.214Z,10.88
2022-08-03T07:22:06.673Z,11.80
2022-08-03T07:25:12.313Z,6.30
2022-08-03T07:28:17.598Z,13.60
2022-08-03T07:31:25.203Z,13.50
2022-08-03T07:34:30.542Z,9.48
2022-08-03T07:37:36.015Z,9.48
2022-08-03T07:40:46.035Z,8.60
2022-08-03T07:43:51.469Z,13.48
2022-08-03T07:46:59.224Z,10.48
2022-08-03T07:50:09.659Z,8.38
2022-08-03T07:53:14.848Z,9.88
2022-08-03T07:56:20.107Z,7.50
2022-08-03T07:59:25.094Z,12.40
2022-08-03T08:02:32.873Z,12.70
2022-08-03T08:05:38.082Z,11.27
2022-08-03T08:08:43.541Z,8.20
2022-08-03T08:11:48.803Z,10.10
2022-08-03T08:14:54.016Z,11.95
2022-08-03T08:18:02.753Z,6.38
2022-08-03T08:21:08.833Z,13.05
2022-08-03T08:24:18.040Z,7.22
2022-08-03T08:27:23.619Z,9.77
2022-08-03T08:30:28.724Z,10.60
2022-08-03T08:40:10.334Z,8.57
2022-08-03T08:43:16.067Z,8.23
2022-08-03T08:46:24.151Z,8.30
2022-08-03T08:49:32.652Z,6.70
2022-08-03T08:52:38.621Z,11.02
2022-08-03T08:55:58.256Z,8.63
2022-08-03T08:59:05.419Z,8.77
2022-08-03T09:02:10.582Z,9.32
2022-08-03T09:05:20.872Z,5.78
2022-08-03T09:08:33.512Z,8.43
2022-08-03T09:12:00.405Z,9.88
2022-08-03T09:15:19.077Z,8.07
2022-08-03T09:18:32.699Z,6.50
2022-08-03T09:21:40.978Z,8.02
2022-08-03T09:25:21.626Z,12.85
2022-08-03T09:28:52.897Z,8.15
2022-08-03T09:31:48.941Z,10.20
2022-08-03T09:34:58.090Z,8.00
2022-08-03T09:38:15.924Z,9.15
2022-08-03T09:41:21.410Z,13.18
2022-08-03T09:44:36.652Z,10.10
2022-08-03T09:47:44.976Z,9.85
2022-08-03T09:50:58.495Z,7.78
2022-08-03T09:54:31.712Z,12.82
2022-08-03T09:57:37.219Z,14.32
2022-08-03T10:00:56.019Z,9.13
2022-08-03T10:04:03.911Z,8.00
2022-08-03T10:07:10.216Z,10.57
2022-08-03T10:10:31.053Z,9.93
2022-08-03T10:13:37.345Z,9.00
2022-08-03T10:16:43.210Z,10.90
2022-08-03T10:19:48.312Z,8.95
2022-08-03T10:22:53.467Z,8.98
2022-08-03T10:26:04.642Z,10.32
2022-08-03T10:29:14.231Z,12.52
2022-08-03T10:32:22.134Z,9.75
2022-08-03T10:35:28.119Z,11.27
2022-08-03T10:38:35.954Z,8.63
2022-08-03T10:41:46.545Z,10.40
2022-08-03T10:44:56.046Z,8.63
2022-08-03T10:51:07.779Z,11.13
2022-08-03T10:54:27.612Z,16.23
2022-08-03T10:57:48.849Z,13.02
2022-08-03T11:00:55.011Z,12.57
2022-08-03T11:04:16.983Z,11.15
2022-08-03T11:07:23.531Z,7.65
2022-08-03T11:10:34.880Z,13.57
2022-08-03T11:13:59.405Z,17.10
2022-08-03T11:17:15.444Z,9.15
2022-08-03T11:20:46.497Z,8.77
2022-08-03T11:24:05.523Z,10.95
2022-08-03T11:27:21.466Z,9.15
2022-08-03T11:30:30.049Z,10.50
2022-08-03T11:33:35.255Z,11.40
2022-08-03T11:36:55.162Z,13.00
2022-08-03T11:40:02.340Z,9.48
2022-08-03T11:43:08.625Z,11.52
2022-08-03T11:46:28.748Z,15.27
2022-08-03T11:49:35.161Z,11.05
2022-08-03T11:52:41.611Z,54.40
2022-08-03T11:55:49.302Z,17.83
2022-08-03T11:58:58.106Z,11.57
2022-08-03T12:02:23.651Z,19.20
2022-08-03T12:08:34.698Z,9.45
2022-08-03T12:11:39.968Z,6.00
2022-08-03T12:15:01.591Z,8.57
2022-08-03T12:18:19.071Z,8.85
2022-08-03T12:21:25.086Z,6.88
2022-08-03T12:24:32.475Z,9.68
2022-08-03T12:27:38.266Z,7.95
2022-08-03T12:30:43.409Z,8.13
2022-08-03T12:34:03.108Z,8.80
2022-08-03T12:37:19.242Z,7.85
2022-08-03T12:40:28.778Z,10.95
2022-08-03T12:43:39.440Z,10.43
2022-08-03T12:46:47.929Z,11.20
2022-08-03T12:49:57.245Z,11.32
2022-08-03T12:53:04.215Z,12.40
2022-08-03T12:56:09.423Z,15.95
2022-08-03T12:59:32.218Z,13.90
2022-08-03T13:02:40.755Z,12.50
2022-08-03T13:05:54.359Z,18.95
2022-08-03T13:12:11.011Z,10.25
2022-08-03T13:15:16.200Z,9.60
2022-08-03T13:18:21.349Z,12.32
2022-08-03T13:21:29.088Z,15.35
2022-08-03T13:24:34.869Z,18.63
2022-08-03T13:28:04.447Z,11.10
2022-08-03T13:31:05.279Z,11.40
2022-08-03T13:34:12.109Z,12.88
2022-08-03T13:37:19.959Z,18.58
2022-08-03T13:40:30.142Z,9.88
2022-08-03T13:43:35.630Z,9.73
2022-08-03T13:46:40.749Z,13.32
2022-08-03T13:49:59.405Z,10.80
2022-08-03T13:53:08.462Z,13.25
2022-08-03T13:56:13.708Z,11.93
2022-08-03T13:59:18.918Z,18.48
2022-08-03T14:02:24.074Z,12.65
2022-08-03T14:05:29.203Z,10.85
2022-08-03T14:08:40.041Z,10.63
2022-08-03T14:12:08.276Z,9.80
2022-08-03T14:15:13.269Z,9.77
2022-08-03T14:18:27.753Z,7.63
2022-08-03T14:21:35.726Z,12.32
2022-08-03T14:24:43.366Z,13.00
2022-08-03T14:27:48.495Z,9.43
2022-08-03T14:30:54.084Z,14.50
2022-08-03T14:33:59.210Z,10.32
2022-08-03T14:37:04.365Z,9.63
2022-08-03T14:40:12.815Z,6.78
2022-08-03T14:43:18.371Z,12.27
2022-08-03T14:46:23.491Z,8.50
2022-08-03T14:50:31.052Z,13.98
2022-08-03T14:52:53.899Z,9.95
2022-08-03T14:56:04.158Z,13.10
2022-08-03T14:59:11.570Z,9.95
2022-08-03T15:02:23.398Z,9.95
2022-08-03T15:05:29.185Z,14.50
2022-08-03T15:08:34.210Z,12.25
2022-08-03T15:11:42.156Z,15.77
2022-08-03T15:14:47.213Z,8.25
2022-08-03T15:18:00.035Z,10.02
2022-08-03T15:21:05.917Z,6.72
2022-08-03T15:24:11.183Z,11.80
2022-08-03T15:27:19.419Z,12.05
2022-08-03T15:30:24.903Z,8.73
2022-08-03T15:33:29.918Z,10.68
2022-08-03T15:36:35.517Z,11.10
2022-08-03T15:39:58.472Z,12.75
2022-08-03T15:43:08.513Z,10.98
2022-08-03T15:49:34.365Z,10.82
2022-08-03T15:52:39.651Z,11.07
2022-08-03T15:55:44.875Z,13.32
2022-08-03T15:59:04.294Z,15.93
2022-08-03T16:02:17.989Z,12.02
2022-08-03T16:05:22.991Z,10.30
2022-08-03T16:08:28.167Z,11.80
2022-08-03T16:11:33.361Z,12.75
2022-08-03T16:14:51.270Z,11.13
2022-08-03T16:17:57.747Z,14.10
2022-08-03T16:21:03.040Z,17.20
2022-08-03T16:24:12.713Z,11.82
2022-08-03T16:27:55.747Z,12.68
2022-08-03T16:30:50.423Z,12.27
2022-08-03T16:33:55.597Z,9.55
2022-08-03T16:37:16.496Z,14.68
2022-08-03T16:40:26.397Z,16.73
2022-08-03T16:43:32.841Z,14.45
2022-08-03T16:46:43.057Z,18.83
2022-08-03T16:49:55.292Z,11.38
2022-08-03T16:53:01.563Z,10.35
2022-08-03T16:56:10.605Z,12.85
2022-08-03T16:59:16.232Z,13.27
2022-08-03T17:02:26.256Z,11.75
2022-08-03T17:05:46.972Z,12.50
2022-08-03T17:08:55.428Z,20.55
2022-08-03T17:12:00.912Z,12.38
2022-08-03T17:15:10.410Z,15.77
2022-08-03T17:18:21.795Z,13.32
2022-08-03T17:21:29.472Z,14.23
2022-08-03T17:24:36.926Z,9.23
2022-08-03T17:28:49.702Z,10.85
2022-08-03T17:31:22.646Z,13.95
2022-08-03T17:34:38.702Z,13.13
2022-08-03T17:37:57.677Z,18.65
2022-08-03T17:41:10.878Z,16.60
2022-08-03T17:44:31.996Z,15.60
2022-08-03T17:47:43.618Z,17.15
2022-08-03T17:50:54.659Z,18.90
2022-08-03T17:54:03.671Z,24.33
2022-08-03T17:57:22.503Z,26.45
2022-08-03T18:00:44.333Z,33.15
2022-08-03T18:03:58.372Z,39.17
2022-08-03T18:07:11.671Z,26.48
2022-08-03T18:10:19.379Z,32.38
2022-08-03T18:13:26.231Z,38.90
2022-08-03T18:16:37.592Z,35.30
2022-08-03T18:20:02.714Z,27.73
2022-08-03T18:23:25.344Z,28.40
2022-08-03T18:26:40.288Z,28.15
2022-08-03T18:29:53.786Z,29.92
2022-08-03T18:33:00.737Z,17.48
2022-08-03T18:36:06.859Z,18.10
2022-08-03T18:39:15.296Z,15.73
2022-08-03T18:42:26.505Z,19.17
2022-08-03T18:45:56.442Z,15.43
2022-08-03T18:49:00.189Z,15.43
2022-08-03T18:52:17.563Z,20.00
2022-08-03T18:55:33.022Z,16.70
2022-08-03T18:58:43.783Z,18.02
2022-08-03T19:02:00.768Z,14.90
2022-08-03T19:05:10.312Z,14.27
2022-08-03T19:08:18.850Z,18.40
2022-08-03T19:11:28.666Z,17.25
2022-08-03T19:14:56.568Z,18.42
2022-08-03T19:21:12.854Z,18.35
2022-08-03T19:24:25.986Z,15.77
2022-08-03T19:27:34.323Z,13.48
2022-08-03T19:30:40.701Z,13.82
2022-08-03T19:37:18.589Z,10.40
2022-08-03T19:40:27.340Z,16.55
2022-08-03T19:43:52.469Z,22.55
2022-08-03T19:47:03.738Z,17.83
2022-08-03T19:50:14.099Z,16.38
2022-08-03T19:53:20.274Z,11.60
2022-08-03T19:59:46.413Z,16.48
2022-08-03T20:02:55.594Z,14.75
2022-08-03T20:06:01.039Z,9.75
2022-08-03T20:09:07.217Z,19.63
2022-08-03T20:12:13.033Z,34.72
2022-08-03T20:15:31.176Z,14.07
2022-08-03T20:18:39.513Z,11.43
2022-08-03T20:21:45.182Z,13.40
2022-08-03T20:24:52.797Z,14.80
2022-08-03T20:28:08.160Z,18.58
2022-08-03T20:31:32.626Z,18.85
2022-08-03T20:34:41.566Z,14.45
2022-08-03T20:37:46.569Z,18.13
2022-08-03T20:40:51.860Z,17.02
2022-08-03T20:43:57.070Z,17.75
2022-08-03T20:47:06.452Z,20.65
2022-08-03T20:50:15.555Z,19.10
2022-08-03T20:53:57.042Z,14.60
2022-08-03T20:56:49.491Z,12.52
2022-08-03T20:59:54.791Z,19.75
2022-08-03T21:03:03.077Z,18.30
2022-08-03T21:06:08.515Z,15.70
2022-08-03T21:12:22.397Z,17.13
2022-08-03T21:13:09.285Z,16.27
2022-08-03T21:16:12.053Z,16.05
2022-08-03T21:19:02.398Z,13.10
2022-08-03T21:22:07.713Z,15.70
2022-08-03T21:25:13.475Z,9.82
2022-08-03T21:28:27.616Z,17.92
2022-08-03T21:31:32.856Z,9.98
2022-08-03T21:34:41.090Z,17.88
2022-08-03T21:40:52.032Z,21.30
2022-08-03T21:43:57.186Z,13.88
2022-08-03T21:47:03.002Z,14.05
2022-08-03T21:50:12.077Z,15.90
2022-08-03T21:53:17.897Z,18.13
2022-08-03T21:56:23.836Z,14.98
2022-08-03T21:59:29.419Z,12.38
2022-08-03T22:02:35.872Z,19.75
2022-08-03T22:05:47.928Z,14.60
2022-08-03T22:08:54.695Z,13.95
2022-08-03T22:11:59.938Z,11.68
2022-08-03T22:15:06.163Z,18.75
2022-08-03T22:18:11.639Z,18.17
2022-08-03T22:21:35.556Z,17.38
2022-08-03T22:24:41.998Z,18.88
2022-08-03T22:27:48.022Z,14.95
2022-08-03T22:30:53.729Z,26.08
2022-08-03T22:33:59.081Z,20.33
2022-08-03T22:37:07.690Z,18.77
2022-08-03T22:40:16.192Z,16.00
2022-08-03T22:43:24.657Z,16.75
2022-08-03T22:46:30.627Z,16.48
2022-08-03T22:49:35.860Z,13.13
2022-08-03T22:52:44.552Z,20.40
2022-08-03T22:55:51.537Z,15.00
2022-08-03T22:58:56.631Z,15.20
2022-08-03T23:02:19.957Z,15.23
2022-08-03T23:06:01.900Z,15.80
2022-08-03T23:12:02.790Z,15.77
2022-08-03T23:15:08.942Z,16.13
2022-08-03T23:18:14.146Z,17.80
2022-08-03T23:21:20.393Z,15.05
2022-08-03T23:24:46.071Z,18.15
2022-08-03T23:28:05.512Z,24.42
2022-08-03T23:31:11.582Z,19.45
2022-08-03T23:34:29.661Z,15.80
2022-08-03T23:38:04.023Z,21.98
2022-08-03T23:41:02.356Z,16.55
2022-08-03T23:44:10.455Z,21.70
2022-08-03T23:47:16.192Z,21.45
2022-08-03T23:50:21.623Z,23.95
2022-08-03T23:53:29.569Z,17.48
2022-08-03T23:56:41.416Z,16.60
2022-08-03T23:59:55.390Z,17.73
